createdAt,value
2023-05-04T00:00:50.537Z,101477.81
2023-05-04T00:03:16.932Z,101421.50
2023-05-04T00:05:43.381Z,101520.47
2023-05-04T00:08:09.840Z,101522.94
2023-05-04T00:10:36.167Z,101488.44
2023-05-04T00:13:02.673Z,101490.41
2023-05-04T00:15:30.292Z,101447.28
2023-05-04T00:17:57.056Z,101442.03
2023-05-04T00:20:23.430Z,101495.56
2023-05-04T00:22:49.768Z,101499.13
2023-05-04T00:25:16.258Z,101475.81
2023-05-04T00:27:42.617Z,101491.56
2023-05-04T00:30:11.181Z,101370.41
2023-05-04T00:32:37.549Z,101383.53
2023-05-04T00:35:04.220Z,101341.09
2023-05-04T00:37:30.602Z,101339.97
2023-05-04T00:39:57.954Z,101325.34
2023-05-04T00:42:24.292Z,101436.53
2023-05-04T00:44:50.651Z,101367.22
2023-05-04T00:47:19.501Z,101473.56
2023-05-04T00:49:46.417Z,101344.34
2023-05-04T00:52:14.572Z,101479.38
2023-05-04T00:54:46.565Z,101366.25
2023-05-04T00:57:13.377Z,101464.25
2023-05-04T00:59:39.770Z,101427.94
2023-05-04T01:02:06.510Z,101443.69
2023-05-04T01:04:32.964Z,101459.47
2023-05-04T01:07:20.155Z,101476.59
2023-05-04T01:10:02.107Z,101472.19
2023-05-04T01:12:35.754Z,101459.03
2023-05-04T01:15:03.494Z,101353.47
2023-05-04T01:17:30.016Z,101449.78
2023-05-04T01:19:56.475Z,101411.44
2023-05-04T01:22:23.270Z,101324.28
2023-05-04T01:24:50.623Z,101418.75
2023-05-04T01:27:42.955Z,101366.78
2023-05-04T01:30:18.941Z,101421.47
2023-05-04T01:32:47.219Z,101355.53
2023-05-04T01:35:14.017Z,101407.53
2023-05-04T01:37:41.046Z,101412.84
2023-05-04T01:40:08.427Z,101423.91
2023-05-04T01:42:35.225Z,101424.88
2023-05-04T01:45:01.867Z,101412.44
2023-05-04T01:47:28.203Z,101428.13
2023-05-04T01:49:54.586Z,101381.44
2023-05-04T01:52:20.968Z,101405.66
2023-05-04T01:54:47.445Z,101417.06
2023-05-04T01:57:13.816Z,101399.13
2023-05-04T01:59:40.164Z,101420.88
2023-05-04T02:02:06.533Z,101447.78
2023-05-04T02:04:33.868Z,101412.94
2023-05-04T02:07:00.194Z,101427.81
2023-05-04T02:09:29.647Z,101418.25
2023-05-04T02:11:56.038Z,101420.97
2023-05-04T02:14:22.496Z,101337.03
2023-05-04T02:16:48.857Z,101404.63
2023-05-04T02:19:15.316Z,101315.59
2023-05-04T02:21:42.213Z,101422.06
2023-05-04T02:24:08.764Z,101407.41
2023-05-04T02:26:36.205Z,101374.22
2023-05-04T02:29:06.034Z,101425.38
2023-05-04T02:31:33.067Z,101400.31
2023-05-04T02:34:00.593Z,101434.00
2023-05-04T02:36:27.013Z,101324.13
2023-05-04T02:38:54.774Z,101417.94
2023-05-04T02:41:21.536Z,101314.75
2023-05-04T02:43:47.930Z,101339.03
2023-05-04T02:46:14.326Z,101222.19
2023-05-04T02:48:40.738Z,101418.78
2023-05-04T02:51:07.082Z,101335.81
2023-05-04T02:53:33.407Z,101401.63
2023-05-04T02:55:59.744Z,101400.69
2023-05-04T02:58:26.236Z,101371.28
2023-05-04T03:00:56.165Z,101415.38
2023-05-04T03:03:22.590Z,101285.47
2023-05-04T03:05:48.922Z,101308.00
2023-05-04T03:08:15.701Z,101250.72
2023-05-04T03:10:42.089Z,101405.84
2023-05-04T03:13:08.542Z,101297.56
2023-05-04T03:15:35.228Z,101285.44
2023-05-04T03:18:01.647Z,101339.06
2023-05-04T03:20:28.271Z,101362.41
2023-05-04T03:22:54.668Z,101313.09
2023-05-04T03:25:21.167Z,101319.09
2023-05-04T03:27:47.611Z,101327.06
2023-05-04T03:30:14.122Z,101366.00
2023-05-04T03:32:40.822Z,101297.59
2023-05-04T03:35:08.014Z,101303.56
2023-05-04T03:37:34.387Z,101316.75
2023-05-04T03:40:00.886Z,101333.06
2023-05-04T03:42:27.237Z,101271.72
2023-05-04T03:44:53.687Z,101346.94
2023-05-04T03:47:20.042Z,101282.16
2023-05-04T03:49:47.578Z,101273.63
2023-05-04T03:52:13.902Z,101270.19
2023-05-04T03:54:40.424Z,101264.09
2023-05-04T03:57:06.744Z,101334.13
2023-05-04T03:59:33.125Z,101258.00
2023-05-04T04:02:00.285Z,101399.16
2023-05-04T04:04:27.329Z,101401.72
2023-05-04T04:06:53.828Z,101401.91
2023-05-04T04:09:20.230Z,101392.47
2023-05-04T04:11:47.254Z,101378.34
2023-05-04T04:14:13.702Z,101316.16
2023-05-04T04:16:40.296Z,101303.09
2023-05-04T04:19:07.077Z,101371.41
2023-05-04T04:21:33.556Z,101278.88
2023-05-04T04:24:00.051Z,101384.66
2023-05-04T04:26:26.833Z,101371.59
2023-05-04T04:28:53.201Z,101386.28
2023-05-04T04:31:20.377Z,101324.78
2023-05-04T04:33:51.045Z,101306.47
2023-05-04T04:36:18.201Z,101370.50
2023-05-04T04:38:44.731Z,101384.19
2023-05-04T04:41:11.657Z,101242.03
2023-05-04T04:43:38.115Z,101315.69
2023-05-04T04:46:05.335Z,101319.88
2023-05-04T04:48:33.205Z,101383.81
2023-05-04T04:50:59.838Z,101307.59
2023-05-04T04:53:26.259Z,101246.91
2023-05-04T04:55:53.972Z,101291.78
2023-05-04T04:58:20.435Z,101206.88
2023-05-04T05:00:47.507Z,101381.00
2023-05-04T05:03:13.975Z,101279.38
2023-05-04T05:05:40.428Z,101354.66
2023-05-04T05:08:08.947Z,101352.84
2023-05-04T05:10:35.363Z,101372.72
2023-05-04T05:13:02.277Z,101273.69
2023-05-04T05:15:28.905Z,101309.47
2023-05-04T05:17:55.408Z,101225.38
2023-05-04T05:20:24.083Z,101360.44
2023-05-04T05:22:51.531Z,101346.38
2023-05-04T05:25:18.979Z,101322.84
2023-05-04T05:27:46.975Z,101163.41
2023-05-04T05:30:14.586Z,101191.94
2023-05-04T05:32:41.114Z,101201.53
2023-05-04T05:35:08.269Z,101342.63
2023-05-04T05:37:34.827Z,101197.06
2023-05-04T05:40:01.249Z,101397.91
2023-05-04T05:42:30.181Z,101216.91
2023-05-04T05:44:56.572Z,101265.97
2023-05-04T05:47:22.995Z,101321.34
2023-05-04T05:49:49.398Z,101374.09
2023-05-04T05:52:16.110Z,101359.44
2023-05-04T05:54:42.635Z,101266.66
2023-05-04T05:57:09.048Z,101352.06
2023-05-04T05:59:35.393Z,101386.69
2023-05-04T06:02:01.846Z,101294.78
2023-05-04T06:04:28.284Z,101299.59
2023-05-04T06:06:54.659Z,101300.56
2023-05-04T06:09:21.066Z,101295.97
2023-05-04T06:11:47.424Z,101374.63
2023-05-04T06:14:13.745Z,101373.72
2023-05-04T06:16:40.384Z,101364.84
2023-05-04T06:19:07.242Z,101262.69
2023-05-04T06:21:33.589Z,101362.88
2023-05-04T06:23:59.952Z,101340.22
2023-05-04T06:26:26.304Z,101295.06
2023-05-04T06:28:52.711Z,101358.16
2023-05-04T06:31:19.266Z,101250.69
2023-05-04T06:33:45.760Z,101279.16
2023-05-04T06:36:13.224Z,101361.22
2023-05-04T06:38:39.611Z,101327.25
2023-05-04T06:41:06.150Z,101319.38
2023-05-04T06:43:32.945Z,101344.06
2023-05-04T06:46:05.478Z,101333.84
2023-05-04T06:48:31.908Z,101291.25
2023-05-04T06:51:00.079Z,101330.97
2023-05-04T06:53:28.892Z,101319.53
2023-05-04T06:55:55.335Z,101286.72
2023-05-04T06:58:21.862Z,101330.81
2023-05-04T07:00:48.286Z,101313.06
2023-05-04T07:03:14.724Z,101318.50
2023-05-04T07:05:41.369Z,101312.84
2023-05-04T07:08:09.628Z,101313.81
2023-05-04T07:10:36.029Z,101274.69
2023-05-04T07:13:02.515Z,101332.66
2023-05-04T07:15:29.352Z,101287.34
2023-05-04T07:17:55.801Z,101316.53
2023-05-04T07:20:25.107Z,101313.72
2023-05-04T07:22:59.034Z,101331.91
2023-05-04T07:25:26.153Z,101336.91
2023-05-04T07:27:53.184Z,101233.16
2023-05-04T07:30:20.349Z,101312.09
2023-05-04T07:32:47.183Z,101262.69
2023-05-04T07:35:13.604Z,101191.00
2023-05-04T07:37:39.920Z,101311.34
2023-05-04T07:40:07.668Z,101226.75
2023-05-04T07:42:34.529Z,101302.41
2023-05-04T07:45:01.251Z,101281.41
2023-05-04T07:47:27.938Z,101151.13
2023-05-04T07:49:54.444Z,101301.91
2023-05-04T07:52:20.763Z,101297.25
2023-05-04T07:54:47.168Z,101225.34
2023-05-04T07:57:13.479Z,101209.59
2023-05-04T07:59:40.062Z,101254.09
2023-05-04T08:02:06.561Z,101246.88
2023-05-04T08:04:33.061Z,101266.31
2023-05-04T08:06:59.558Z,101228.91
2023-05-04T08:09:25.959Z,101278.75
2023-05-04T08:11:52.439Z,101281.25
2023-05-04T08:14:18.848Z,101258.16
2023-05-04T08:16:45.279Z,101199.16
2023-05-04T08:19:12.413Z,101277.13
2023-05-04T08:21:40.315Z,101208.66
2023-05-04T08:24:07.401Z,101282.22
2023-05-04T08:26:37.027Z,101261.41
2023-05-04T08:29:08.274Z,101169.53
2023-05-04T08:31:35.233Z,101251.75
2023-05-04T08:34:01.687Z,101235.53
2023-05-04T08:36:28.061Z,101252.56
2023-05-04T08:38:54.492Z,101154.19
2023-05-04T08:41:21.188Z,101257.00
2023-05-04T08:43:49.239Z,101190.13
2023-05-04T08:46:16.724Z,101269.59
2023-05-04T08:48:44.792Z,101272.69
2023-05-04T08:51:11.498Z,101258.75
2023-05-04T08:53:41.629Z,101233.28
2023-05-04T08:56:09.437Z,101261.44
2023-05-04T08:58:38.145Z,101209.25
2023-05-04T09:01:07.216Z,101165.00
2023-05-04T09:03:34.231Z,101241.19
2023-05-04T09:06:00.886Z,101221.38
2023-05-04T09:08:27.446Z,101208.03
2023-05-04T09:10:53.788Z,101215.50
2023-05-04T09:13:20.708Z,101212.19
2023-05-04T09:15:55.213Z,101205.53
2023-05-04T09:18:21.890Z,101204.97
2023-05-04T09:20:49.191Z,101202.25
2023-05-04T09:23:17.957Z,101199.16
2023-05-04T09:25:52.441Z,101201.91
2023-05-04T09:28:19.807Z,101222.03
2023-05-04T09:30:48.746Z,101195.94
2023-05-04T09:33:26.398Z,101195.34
2023-05-04T09:35:52.958Z,101212.06
2023-05-04T09:38:29.424Z,101215.44
2023-05-04T09:40:56.013Z,101170.00
2023-05-04T09:43:24.314Z,101208.22
2023-05-04T09:45:51.324Z,101182.59
2023-05-04T09:48:20.539Z,101213.28
2023-05-04T09:50:58.304Z,101173.50
2023-05-04T09:53:29.694Z,101182.63
2023-05-04T09:56:00.704Z,101191.94
2023-05-04T09:58:30.545Z,101179.91
2023-05-04T10:00:58.141Z,101149.19
2023-05-04T10:03:26.755Z,101160.41
2023-05-04T10:05:54.131Z,101077.53
2023-05-04T10:08:21.079Z,101157.75
2023-05-04T10:10:48.138Z,101164.91
2023-05-04T10:13:14.700Z,101146.00
2023-05-04T10:15:49.281Z,101147.72
2023-05-04T10:18:28.913Z,101155.09
2023-05-04T10:21:24.258Z,101165.31
2023-05-04T10:24:28.636Z,101141.09
2023-05-04T10:27:15.947Z,101157.91
2023-05-04T10:29:43.007Z,101120.94
2023-05-04T10:32:27.998Z,101120.94
2023-05-04T10:35:05.484Z,101144.16
2023-05-04T10:37:32.468Z,101119.50
2023-05-04T10:39:58.813Z,101093.00
2023-05-04T10:42:25.168Z,101113.72
2023-05-04T10:44:55.552Z,101126.47
2023-05-04T10:47:29.799Z,101123.03
2023-05-04T10:50:06.009Z,101122.75
2023-05-04T10:52:44.469Z,101105.88
2023-05-04T10:55:11.490Z,101066.59
2023-05-04T10:57:51.642Z,101088.38
2023-05-04T11:00:18.460Z,101076.94
2023-05-04T11:02:47.232Z,101074.59
2023-05-04T11:05:18.175Z,101055.88
2023-05-04T11:07:44.945Z,101047.03
2023-05-04T11:10:25.511Z,101039.75
2023-05-04T11:12:54.975Z,101047.91
2023-05-04T11:15:21.506Z,101004.91
2023-05-04T11:17:49.387Z,101021.25
2023-05-04T11:20:25.006Z,101035.44
2023-05-04T11:22:52.827Z,101008.25
2023-05-04T11:25:29.795Z,101028.94
2023-05-04T11:27:58.028Z,101026.97
2023-05-04T11:30:32.680Z,101001.47
2023-05-04T11:33:00.435Z,101019.16
2023-05-04T11:35:27.268Z,100998.88
2023-05-04T11:37:53.684Z,100967.13
2023-05-04T11:40:25.466Z,100990.63
2023-05-04T11:42:55.377Z,101015.91
2023-05-04T11:45:27.002Z,101002.53
2023-05-04T11:47:56.459Z,100992.66
2023-05-04T11:50:23.786Z,101004.41
2023-05-04T11:52:50.219Z,100996.75
2023-05-04T11:55:33.278Z,100982.13
2023-05-04T11:58:00.969Z,100997.19
2023-05-04T12:00:46.833Z,100991.88
2023-05-04T12:03:24.559Z,100949.41
2023-05-04T12:05:56.621Z,100956.06
2023-05-04T12:08:27.708Z,100963.16
2023-05-04T12:11:09.219Z,100967.94
2023-05-04T12:13:36.317Z,100953.50
2023-05-04T12:16:28.938Z,100893.38
2023-05-04T12:19:10.848Z,100977.69
2023-05-04T12:21:38.105Z,100989.59
2023-05-04T12:24:05.540Z,100981.09
2023-05-04T12:26:32.095Z,100986.91
2023-05-04T12:28:58.658Z,100960.22
2023-05-04T12:31:25.528Z,100916.06
2023-05-04T12:33:52.560Z,100977.69
2023-05-04T12:36:19.152Z,100946.44
2023-05-04T12:38:46.134Z,100938.81
2023-05-04T12:41:12.686Z,100911.84
2023-05-04T12:43:39.135Z,100957.22
2023-05-04T12:46:05.857Z,100933.53
2023-05-04T12:48:32.838Z,100913.41
2023-05-04T12:51:01.114Z,100928.22
2023-05-04T12:53:30.033Z,100904.44
2023-05-04T12:55:57.208Z,100931.38
2023-05-04T12:58:23.548Z,100904.69
2023-05-04T13:00:49.962Z,100892.09
2023-05-04T13:03:18.051Z,100896.88
2023-05-04T13:05:46.454Z,100930.19
2023-05-04T13:08:13.133Z,100934.44
2023-05-04T13:10:39.489Z,100898.50
2023-05-04T13:13:06.448Z,100921.06
2023-05-04T13:15:33.816Z,100904.44
2023-05-04T13:18:00.583Z,100907.28
2023-05-04T13:20:27.165Z,100909.81
2023-05-04T13:22:54.190Z,100892.78
2023-05-04T13:25:22.165Z,100871.41
2023-05-04T13:27:48.842Z,100845.09
2023-05-04T13:30:20.244Z,100810.94
2023-05-04T13:32:46.629Z,100867.63
2023-05-04T13:35:13.279Z,100885.06
2023-05-04T13:37:39.584Z,100882.44
2023-05-04T13:40:06.419Z,100861.03
2023-05-04T13:42:35.655Z,100870.13
2023-05-04T13:45:03.430Z,100869.00
2023-05-04T13:47:29.818Z,100857.63
2023-05-04T13:49:56.158Z,100812.28
2023-05-04T13:52:22.567Z,100865.28
2023-05-04T13:54:49.396Z,100761.25
2023-05-04T13:57:15.832Z,100843.16
2023-05-04T13:59:48.780Z,100770.47
2023-05-04T14:02:24.972Z,100813.97
2023-05-04T14:04:51.634Z,100811.41
2023-05-04T14:07:17.982Z,100801.47
2023-05-04T14:09:44.703Z,100802.94
2023-05-04T14:12:11.059Z,100814.09
2023-05-04T14:14:37.403Z,100783.66
2023-05-04T14:17:04.074Z,100759.50
2023-05-04T14:19:30.460Z,100733.16
2023-05-04T14:21:56.793Z,100796.75
2023-05-04T14:24:24.845Z,100799.19
2023-05-04T14:26:51.781Z,100747.38
2023-05-04T14:29:18.122Z,100759.59
2023-05-04T14:31:44.516Z,100771.75
2023-05-04T14:34:10.969Z,100753.72
2023-05-04T14:36:37.372Z,100730.00
2023-05-04T14:39:03.818Z,100746.47
2023-05-04T14:41:33.694Z,100769.84
2023-05-04T14:44:00.386Z,100762.34
2023-05-04T14:46:29.051Z,100682.97
2023-05-04T14:48:56.046Z,100749.84
2023-05-04T14:51:23.607Z,100685.38
2023-05-04T14:53:50.028Z,100730.88
2023-05-04T14:56:16.391Z,100731.56
2023-05-04T14:58:42.757Z,100708.53
2023-05-04T15:01:09.369Z,100744.53
2023-05-04T15:03:36.125Z,100707.63
2023-05-04T15:06:03.491Z,100727.22
2023-05-04T15:08:30.089Z,100732.63
2023-05-04T15:10:59.257Z,100708.88
2023-05-04T15:13:26.109Z,100737.44
2023-05-04T15:15:52.917Z,100751.66
2023-05-04T15:18:21.155Z,100721.75
2023-05-04T15:20:47.525Z,100733.84
2023-05-04T15:23:13.867Z,100735.09
2023-05-04T15:25:40.956Z,100739.19
2023-05-04T15:28:10.603Z,100679.97
2023-05-04T15:30:37.648Z,100680.03
2023-05-04T15:33:05.321Z,100643.66
2023-05-04T15:35:33.172Z,100671.63
2023-05-04T15:38:00.834Z,100740.09
2023-05-04T15:40:27.850Z,100737.53
2023-05-04T15:42:54.305Z,100708.09
2023-05-04T15:45:21.367Z,100656.34
2023-05-04T15:47:47.909Z,100708.16
2023-05-04T15:50:14.360Z,100693.66
2023-05-04T15:52:40.729Z,100688.69
2023-05-04T15:55:23.684Z,100679.56
2023-05-04T15:57:51.700Z,100662.97
2023-05-04T16:00:18.442Z,100706.53
2023-05-04T16:02:44.890Z,100678.97
2023-05-04T16:05:11.326Z,100706.63
2023-05-04T16:07:37.660Z,100672.13
2023-05-04T16:10:05.079Z,100657.34
2023-05-04T16:12:32.042Z,100657.53
2023-05-04T16:14:58.580Z,100678.56
2023-05-04T16:17:25.073Z,100653.94
2023-05-04T16:19:51.738Z,100672.16
2023-05-04T16:22:18.079Z,100629.22
2023-05-04T16:24:44.436Z,100643.94
2023-05-04T16:27:10.807Z,100643.56
2023-05-04T16:29:37.180Z,100663.13
2023-05-04T16:32:03.649Z,100676.81
2023-05-04T16:34:30.072Z,100659.03
2023-05-04T16:36:56.476Z,100675.69
2023-05-04T16:39:30.046Z,100653.94
2023-05-04T16:41:57.274Z,100669.25
2023-05-04T16:44:24.108Z,100640.97
2023-05-04T16:46:51.546Z,100595.47
2023-05-04T16:49:18.411Z,100653.50
2023-05-04T16:51:44.851Z,100615.72
2023-05-04T16:54:11.397Z,100670.22
2023-05-04T16:56:37.787Z,100630.00
2023-05-04T16:59:04.448Z,100578.50
2023-05-04T17:01:30.845Z,100615.59
2023-05-04T17:03:57.758Z,100644.47
2023-05-04T17:06:24.412Z,100654.41
2023-05-04T17:08:50.839Z,100652.16
2023-05-04T17:11:17.260Z,100630.00
2023-05-04T17:13:43.718Z,100653.97
2023-05-04T17:16:10.532Z,100643.91
2023-05-04T17:18:37.048Z,100649.59
2023-05-04T17:21:03.540Z,100655.56
2023-05-04T17:23:29.960Z,100636.50
2023-05-04T17:25:56.913Z,100624.75
2023-05-04T17:28:23.549Z,100666.66
2023-05-04T17:30:49.888Z,100612.41
2023-05-04T17:33:16.331Z,100631.94
2023-05-04T17:35:42.679Z,100590.25
2023-05-04T17:38:09.061Z,100648.88
2023-05-04T17:40:35.463Z,100593.03
2023-05-04T17:43:01.892Z,100672.16
2023-05-04T17:45:28.363Z,100627.03
2023-05-04T17:47:54.801Z,100657.34
2023-05-04T17:50:21.456Z,100629.66
2023-05-04T17:52:55.391Z,100616.19
2023-05-04T17:55:25.882Z,100646.06
2023-05-04T17:57:53.864Z,100677.03
2023-05-04T18:00:21.006Z,100665.25
2023-05-04T18:02:47.501Z,100659.44
2023-05-04T18:05:14.146Z,100581.72
2023-05-04T18:07:40.617Z,100629.44
2023-05-04T18:10:07.718Z,100644.34
2023-05-04T18:12:35.666Z,100675.25
2023-05-04T18:15:07.959Z,100554.16
2023-05-04T18:17:38.193Z,100639.16
2023-05-04T18:20:07.304Z,100671.44
2023-05-04T18:22:34.261Z,100675.59
2023-05-04T18:25:01.325Z,100615.16
2023-05-04T18:27:33.313Z,100662.25
2023-05-04T18:30:00.705Z,100628.34
2023-05-04T18:32:27.514Z,100612.66
2023-05-04T18:34:54.595Z,100537.69
2023-05-04T18:37:21.558Z,100589.09
2023-05-04T18:39:48.025Z,100653.25
2023-05-04T18:42:14.524Z,100613.72
2023-05-04T18:44:40.902Z,100620.78
2023-05-04T18:47:08.001Z,100616.91
2023-05-04T18:49:34.385Z,100650.16
2023-05-04T18:52:01.529Z,100690.44
2023-05-04T18:54:31.575Z,100652.59
2023-05-04T18:56:58.714Z,100705.53
2023-05-04T18:59:25.732Z,100685.47
2023-05-04T19:01:52.894Z,100619.34
2023-05-04T19:04:19.417Z,100712.13
2023-05-04T19:06:47.517Z,100718.59
2023-05-04T19:09:14.437Z,100626.16
2023-05-04T19:11:41.033Z,100644.50
2023-05-04T19:14:07.908Z,100605.56
2023-05-04T19:16:34.484Z,100703.81
2023-05-04T19:19:00.792Z,100594.91
2023-05-04T19:21:28.309Z,100673.22
2023-05-04T19:23:54.871Z,100690.16
2023-05-04T19:26:21.766Z,100626.56
2023-05-04T19:28:48.557Z,100607.56
2023-05-04T19:31:15.857Z,100705.19
2023-05-04T19:33:48.452Z,100675.13
2023-05-04T19:36:16.274Z,100646.50
2023-05-04T19:38:42.949Z,100635.13
2023-05-04T19:41:09.510Z,100633.50
2023-05-04T19:43:38.392Z,100639.34
2023-05-04T19:46:04.846Z,100640.78
2023-05-04T19:48:31.420Z,100617.38
2023-05-04T19:50:57.877Z,100632.13
2023-05-04T19:53:24.758Z,100671.00
2023-05-04T19:55:51.369Z,100665.50
2023-05-04T19:58:17.990Z,100630.13
2023-05-04T20:00:44.444Z,100638.50
2023-05-04T20:03:10.961Z,100639.09
2023-05-04T20:05:38.397Z,100611.97
2023-05-04T20:08:05.464Z,100707.19
2023-05-04T20:10:32.010Z,100696.84
2023-05-04T20:12:58.486Z,100711.81
2023-05-04T20:15:25.129Z,100708.25
2023-05-04T20:17:52.072Z,100718.44
2023-05-04T20:20:20.562Z,100642.34
2023-05-04T20:22:49.002Z,100642.66
2023-05-04T20:25:15.514Z,100631.69
2023-05-04T20:27:42.456Z,100673.19
2023-05-04T20:30:09.887Z,100664.75
2023-05-04T20:32:36.420Z,100659.22
2023-05-04T20:35:03.205Z,100663.59
2023-05-04T20:37:29.803Z,100613.13
2023-05-04T20:39:56.530Z,100661.66
2023-05-04T20:42:23.056Z,100604.81
2023-05-04T20:44:49.445Z,100608.44
2023-05-04T20:47:15.837Z,100622.31
2023-05-04T20:49:42.234Z,100662.41
2023-05-04T20:52:08.629Z,100603.94
2023-05-04T20:54:34.997Z,100662.31
2023-05-04T20:57:01.561Z,100627.53
2023-05-04T20:59:28.419Z,100648.97
2023-05-04T21:01:54.985Z,100634.03
2023-05-04T21:04:21.970Z,100640.09
2023-05-04T21:06:48.554Z,100650.22
2023-05-04T21:09:15.438Z,100617.97
2023-05-04T21:11:41.829Z,100631.41
2023-05-04T21:14:08.333Z,100676.28
2023-05-04T21:16:34.717Z,100569.53
2023-05-04T21:19:01.041Z,100631.38
2023-05-04T21:21:27.438Z,100595.34
2023-05-04T21:23:53.782Z,100678.56
2023-05-04T21:26:20.200Z,100690.91
2023-05-04T21:28:46.574Z,100673.41
2023-05-04T21:31:12.951Z,100650.13
2023-05-04T21:33:39.362Z,100673.66
2023-05-04T21:36:15.437Z,100681.25
2023-05-04T21:38:42.506Z,100694.94
2023-05-04T21:41:16.413Z,100669.50
2023-05-04T21:43:43.344Z,100676.31
2023-05-04T21:46:11.473Z,100638.13
2023-05-04T21:48:37.835Z,100637.41
2023-05-04T21:51:04.366Z,100599.88
2023-05-04T21:53:33.322Z,100621.16
2023-05-04T21:56:07.488Z,100671.34
2023-05-04T21:58:34.463Z,100647.91
2023-05-04T22:01:00.920Z,100629.84
2023-05-04T22:03:28.501Z,100657.47
2023-05-04T22:05:57.468Z,100583.88
2023-05-04T22:08:24.962Z,100620.09
2023-05-04T22:10:52.608Z,100670.41
2023-05-04T22:13:19.135Z,100701.41
2023-05-04T22:15:50.028Z,100677.44
2023-05-04T22:18:17.142Z,100673.84
2023-05-04T22:20:43.548Z,100656.97
2023-05-04T22:23:10.522Z,100701.19
2023-05-04T22:25:36.843Z,100698.53
2023-05-04T22:28:03.430Z,100668.13
2023-05-04T22:30:29.847Z,100667.94
2023-05-04T22:32:56.949Z,100640.59
2023-05-04T22:35:23.453Z,100668.81
2023-05-04T22:37:50.730Z,100687.50
2023-05-04T22:40:17.394Z,100685.03
2023-05-04T22:42:46.697Z,100687.50
2023-05-04T22:45:14.702Z,100655.06
2023-05-04T22:47:41.811Z,100625.63
2023-05-04T22:50:09.171Z,100702.19
2023-05-04T22:52:35.992Z,100654.72
2023-05-04T22:55:02.406Z,100678.19
2023-05-04T22:57:28.783Z,100681.25
2023-05-04T22:59:55.229Z,100672.41
2023-05-04T23:02:21.752Z,100578.81
2023-05-04T23:04:48.268Z,100619.22
2023-05-04T23:07:14.725Z,100664.31
2023-05-04T23:09:45.422Z,100718.56
2023-05-04T23:12:12.670Z,100721.00
2023-05-04T23:14:39.012Z,100549.84
2023-05-04T23:17:05.657Z,100604.75
2023-05-04T23:19:32.578Z,100704.94
2023-05-04T23:21:59.059Z,100721.25
2023-05-04T23:24:25.579Z,100661.34
2023-05-04T23:26:52.311Z,100669.94
2023-05-04T23:29:19.606Z,100646.94
2023-05-04T23:31:46.282Z,100657.44
2023-05-04T23:34:13.394Z,100634.47
2023-05-04T23:36:39.781Z,100685.50
2023-05-04T23:39:06.309Z,100714.56
2023-05-04T23:41:32.662Z,100703.53
2023-05-04T23:43:59.464Z,100702.09
2023-05-04T23:46:25.973Z,100720.53
2023-05-04T23:48:52.404Z,100715.03
2023-05-04T23:51:19.206Z,100652.25
2023-05-04T23:53:45.523Z,100645.59
2023-05-04T23:56:12.921Z,100671.56
2023-05-04T23:58:39.396Z,100688.75
